Time;durP1;ratioP1;P1;durP2;ratioP2;P2;SDS_P1;SDS_P2;PMS_P1;PMS_P2;Temp;Humidity;BMP_temperature;BMP_pressure;BME280_temperature;BME280_humidity;BME280_pressure;Samples;Min_cycle;Max_cycle;Signal;HPM_P1;HPM_P2
2022/08/02 00:00:41;;;;;;;29.50;26.33;;;;;;;-144.27;100.00;69759.91;2050186;29;20465;-72
2022/08/02 00:01:43;;;;;;;31.50;26.73;;;;;;;-144.27;100.00;69759.91;2058474;28;20667;-72
2022/08/02 00:02:48;;;;;;;30.70;27.40;;;;;;;-144.27;100.00;69759.91;2066543;28;20436;-72
2022/08/02 00:03:48;;;;;;;34.40;26.47;;;;;;;-144.27;100.00;69759.91;2066335;28;20452;-72
2022/08/02 00:04:50;;;;;;;29.70;26.60;;;;;;;-144.27;100.00;69759.91;2066999;28;20432;-72
2022/08/02 00:05:52;;;;;;;29.13;25.57;;;;;;;-144.27;100.00;69759.91;2066807;28;20220;-72
2022/08/02 00:06:54;;;;;;;30.33;25.70;;;;;;;-144.27;100.00;69759.91;2057740;28;20484;-72
2022/08/02 00:07:55;;;;;;;29.13;26.23;;;;;;;-144.27;100.00;69759.91;2058351;28;20844;-72
2022/08/02 00:08:59;;;;;;;28.57;25.77;;;;;;;-144.27;100.00;69759.91;2058121;28;20515;-72
2022/08/02 00:10:00;;;;;;;30.07;25.70;;;;;;;-144.27;100.00;69759.91;2058540;28;20198;-72
2022/08/02 00:11:01;;;;;;;29.17;26.17;;;;;;;-144.27;100.00;69759.91;2058153;28;20548;-72
2022/08/02 00:12:03;;;;;;;29.67;26.67;;;;;;;-144.27;100.00;69759.91;2050126;28;20688;-71
2022/08/02 00:13:05;;;;;;;28.73;25.60;;;;;;;-144.27;100.00;69759.91;2058474;28;20425;-72
2022/08/02 00:14:05;;;;;;;29.20;26.10;;;;;;;-144.27;100.00;69759.91;2058087;28;20441;-72
2022/08/02 00:15:08;;;;;;;30.23;26.27;;;;;;;-144.27;100.00;69759.91;2050270;28;20466;-73
2022/08/02 00:16:10;;;;;;;30.40;27.00;;;;;;;-144.27;100.00;69759.91;2058708;28;20197;-72
2022/08/02 00:17:13;;;;;;;30.73;26.73;;;;;;;-144.27;100.00;69759.91;2057978;28;20806;-72
2022/08/02 00:18:15;;;;;;;31.37;27.33;;;;;;;-144.27;100.00;69759.91;2058037;28;20505;-72
2022/08/02 00:19:16;;;;;;;30.87;27.47;;;;;;;-144.27;100.00;69759.91;2066109;28;20546;-72
2022/08/02 00:20:17;;;;;;;35.50;27.03;;;;;;;-144.27;100.00;69759.91;2058010;28;20498;-72
2022/08/02 00:21:19;;;;;;;30.13;26.33;;;;;;;-144.27;100.00;69759.91;2057569;28;20461;-72
2022/08/02 00:22:20;;;;;;;31.67;26.97;;;;;;;-144.27;100.00;69759.91;2066172;28;20201;-72
2022/08/02 00:23:22;;;;;;;34.37;27.23;;;;;;;-144.27;100.00;69759.91;2066708;28;20486;-72
2022/08/02 00:24:23;;;;;;;31.20;27.07;;;;;;;-144.27;100.00;69759.91;2066053;28;20444;-72
2022/08/02 00:25:25;;;;;;;28.70;25.80;;;;;;;-144.27;100.00;69759.91;2066346;28;20438;-72
2022/08/02 00:26:25;;;;;;;30.40;26.37;;;;;;;-144.27;100.00;69759.91;2066873;28;20205;-72
2022/08/02 00:27:29;;;;;;;31.33;26.63;;;;;;;-144.27;100.00;69759.91;2066097;28;20432;-73
2022/08/02 00:28:31;;;;;;;30.83;26.70;;;;;;;-144.27;100.00;69759.91;2065782;28;20196;-71
2022/08/02 00:29:33;;;;;;;28.30;25.40;;;;;;;-144.27;100.00;69759.91;2050542;28;20454;-71
2022/08/02 00:30:36;;;;;;;29.30;26.23;;;;;;;-144.27;100.00;69759.91;2050108;28;20450;-72
2022/08/02 00:31:37;;;;;;;29.93;26.77;;;;;;;-144.27;100.00;69759.91;2058296;28;20433;-72
2022/08/02 00:32:38;;;;;;;28.87;25.97;;;;;;;-144.27;100.00;69759.91;2066693;28;20443;-72
2022/08/02 00:33:42;;;;;;;28.67;25.73;;;;;;;-144.27;100.00;69759.91;2066217;28;20507;-72
2022/08/02 00:34:44;;;;;;;28.17;25.17;;;;;;;-144.27;100.00;69759.91;2066305;28;20181;-72
2022/08/02 00:35:47;;;;;;;28.67;25.63;;;;;;;-144.27;100.00;69759.91;2066323;28;20452;-72
2022/08/02 00:36:49;;;;;;;29.27;25.30;;;;;;;-144.27;100.00;69759.91;2065705;28;20460;-72
2022/08/02 00:37:51;;;;;;;28.70;25.60;;;;;;;-144.27;100.00;69759.91;2066595;28;20432;-71
2022/08/02 00:38:51;;;;;;;32.57;26.00;;;;;;;-144.27;100.00;69759.91;2066737;28;20562;-72
2022/08/02 00:39:53;;;;;;;30.07;25.50;;;;;;;-144.27;100.00;69759.91;2066605;28;20455;-72
2022/08/02 00:40:54;;;;;;;29.20;26.17;;;;;;;-144.27;100.00;69759.91;2066787;28;20281;-72
2022/08/02 00:41:58;;;;;;;27.90;25.00;;;;;;;-144.27;100.00;69759.91;2057859;28;21021;-72
2022/08/02 00:43:05;;;;;;;29.47;25.83;;;;;;;-144.27;100.00;69759.91;2058456;28;20440;-72
2022/08/02 00:44:07;;;;;;;29.97;25.53;;;;;;;-144.27;100.00;69759.91;2066542;28;20511;-72
2022/08/02 00:45:08;;;;;;;27.93;24.27;;;;;;;-144.27;100.00;69759.91;2058180;28;20457;-72
2022/08/02 00:46:11;;;;;;;27.97;24.60;;;;;;;-144.27;100.00;69759.91;2058101;28;20924;-72
2022/08/02 00:47:11;;;;;;;29.10;25.60;;;;;;;-144.27;100.00;69759.91;2067137;28;20805;-72
2022/08/02 00:48:14;;;;;;;28.67;25.77;;;;;;;-144.27;100.00;69759.91;2057818;28;20445;-73
2022/08/02 00:49:17;;;;;;;27.53;24.63;;;;;;;-144.27;100.00;69759.91;2058086;28;20193;-72
2022/08/02 00:50:21;;;;;;;28.63;25.60;;;;;;;-144.27;100.00;69759.91;2066518;28;20450;-72
2022/08/02 00:51:22;;;;;;;28.13;25.23;;;;;;;-144.27;100.00;69759.91;2065396;28;20871;-71
2022/08/02 00:52:24;;;;;;;27.70;24.67;;;;;;;-144.27;100.00;69759.91;2065999;28;20781;-72
2022/08/02 00:53:25;;;;;;;27.40;24.80;;;;;;;-144.27;100.00;69759.91;2066189;28;20459;-72
2022/08/02 00:54:26;;;;;;;28.30;25.23;;;;;;;-144.27;100.00;69759.91;2066712;28;20436;-72
2022/08/02 00:55:29;;;;;;;28.60;25.70;;;;;;;-144.27;100.00;69759.91;2065804;28;20585;-73
2022/08/02 00:56:32;;;;;;;28.83;25.80;;;;;;;-144.27;100.00;69759.91;2065926;28;20428;-72
2022/08/02 00:57:34;;;;;;;31.73;25.33;;;;;;;-144.27;100.00;69759.91;2066512;28;20927;-72
2022/08/02 00:58:40;;;;;;;34.00;25.37;;;;;;;-144.27;100.00;69759.91;2065753;28;20444;-72
2022/08/02 00:59:41;;;;;;;27.83;24.93;;;;;;;-144.27;100.00;69759.91;2065261;28;20456;-72
2022/08/02 01:00:43;;;;;;;28.13;25.13;;;;;;;-144.27;100.00;69759.91;2057851;28;20429;-72
2022/08/02 01:01:43;;;;;;;29.87;24.67;;;;;;;-144.27;100.00;69759.91;2057684;28;20236;-72
2022/08/02 01:02:46;;;;;;;29.30;25.03;;;;;;;-144.27;100.00;69759.91;2057962;28;20436;-72
2022/08/02 01:03:47;;;;;;;27.17;24.47;;;;;;;-144.27;100.00;69759.91;2066558;28;20220;-72
2022/08/02 01:04:51;;;;;;;27.87;24.83;;;;;;;-144.27;100.00;69759.91;2066637;28;20428;-72
2022/08/02 01:05:53;;;;;;;28.90;25.27;;;;;;;-144.27;100.00;69759.91;2065900;28;20436;-73
2022/08/02 01:06:54;;;;;;;28.67;25.77;;;;;;;-144.27;100.00;69759.91;2066276;28;20557;-72
2022/08/02 01:07:55;;;;;;;28.77;24.83;;;;;;;-144.27;100.00;69759.91;2057669;28;20460;-72
2022/08/02 01:08:56;;;;;;;28.50;24.93;;;;;;;-144.27;100.00;69759.91;2057936;28;20998;-71
2022/08/02 01:09:59;;;;;;;29.07;25.03;;;;;;;-144.27;100.00;69759.91;2066034;28;20267;-72
2022/08/02 01:11:02;;;;;;;27.73;24.77;;;;;;;-144.27;100.00;69759.91;2065699;28;20472;-72
2022/08/02 01:12:03;;;;;;;28.87;25.90;;;;;;;-144.27;100.00;69759.91;2049671;28;20477;-72
2022/08/02 01:13:05;;;;;;;29.60;26.40;;;;;;;-144.27;100.00;69759.91;2049691;28;20450;-72
2022/08/02 01:14:07;;;;;;;29.47;26.47;;;;;;;-144.27;100.00;69759.91;2057752;28;20481;-71
2022/08/02 01:15:10;;;;;;;27.50;24.63;;;;;;;-144.27;100.00;69759.91;2057206;28;20559;-72
2022/08/02 01:16:18;;;;;;;29.27;26.27;;;;;;;-144.27;100.00;69759.91;2049917;28;20859;-72
2022/08/02 01:17:39;;;;;;;29.47;26.37;;;;;;;-144.27;100.00;69759.91;2058825;28;20406;-72
2022/08/02 01:18:44;;;;;;;29.47;26.40;;;;;;;-144.27;100.00;69759.91;2065570;28;21009;-72
2022/08/02 01:19:54;;;;;;;28.67;25.67;;;;;;;-144.27;100.00;69759.91;2065765;28;20475;-72
2022/08/02 01:21:23;;;;;;;29.73;26.53;;;;;;;-144.27;100.00;69759.91;2065911;28;20427;-73
2022/08/02 01:22:45;;;;;;;31.53;26.90;;;;;;;-144.27;100.00;69759.91;2063632;28;20495;-72
2022/08/02 01:24:11;;;;;;;29.53;26.30;;;;;;;-144.27;100.00;69759.91;2066503;28;20435;-72
2022/08/02 01:25:31;;;;;;;28.03;24.23;;;;;;;-144.27;100.00;69759.91;2065571;28;20440;-72
2022/08/02 01:26:40;;;;;;;29.60;26.40;;;;;;;-144.27;100.00;69759.91;2063116;28;20495;-72
2022/08/02 01:27:56;;;;;;;29.43;26.43;;;;;;;-144.27;100.00;69759.91;2058983;28;20514;-72
2022/08/02 01:29:01;;;;;;;29.20;26.07;;;;;;;-144.27;100.00;69759.91;2066265;28;20451;-72
2022/08/02 01:30:07;;;;;;;32.10;27.27;;;;;;;-144.27;100.00;69759.91;2066341;28;20492;-71
2022/08/02 01:31:13;;;;;;;30.90;26.40;;;;;;;-144.27;100.00;69759.91;2065534;28;20527;-71
2022/08/02 01:32:18;;;;;;;31.07;27.97;;;;;;;-144.27;100.00;69759.91;2065028;28;20436;-72
2022/08/02 01:33:20;;;;;;;29.23;26.13;;;;;;;-144.27;100.00;69759.91;2058392;28;20904;-72
2022/08/02 01:34:26;;;;;;;31.83;27.80;;;;;;;-144.27;100.00;69759.91;2066157;28;20436;-72
2022/08/02 01:35:32;;;;;;;37.10;25.90;;;;;;;-144.27;100.00;69759.91;2066391;28;20445;-72
2022/08/02 01:36:39;;;;;;;29.10;26.07;;;;;;;-144.27;100.00;69759.91;2057122;28;20453;-72
2022/08/02 01:37:46;;;;;;;29.10;26.30;;;;;;;-144.27;100.00;69759.91;2050293;28;20868;-72
2022/08/02 01:38:51;;;;;;;29.90;26.10;;;;;;;-144.27;100.00;69759.91;2050608;28;20466;-71
2022/08/02 01:39:56;;;;;;;28.57;25.63;;;;;;;-144.27;100.00;69759.91;2050058;28;20799;-71
2022/08/02 01:40:57;;;;;;;28.57;25.47;;;;;;;-144.27;100.00;69759.91;2057916;28;20430;-72
2022/08/02 01:42:00;;;;;;;27.83;24.70;;;;;;;-144.27;100.00;69759.91;2066097;28;20432;-72
2022/08/02 01:43:01;;;;;;;28.13;24.20;;;;;;;-144.27;100.00;69759.91;2065508;28;20456;-72
2022/08/02 01:44:05;;;;;;;28.70;25.67;;;;;;;-144.27;100.00;69759.91;2065379;28;20532;-71
2022/08/02 01:45:08;;;;;;;28.87;24.60;;;;;;;-144.27;100.00;69759.91;2057931;28;20197;-72
2022/08/02 01:46:12;;;;;;;29.03;24.77;;;;;;;-144.27;100.00;69759.91;2065431;28;20446;-72
2022/08/02 01:47:17;;;;;;;27.80;24.77;;;;;;;-144.27;100.00;69759.91;2057285;28;20468;-71
2022/08/02 01:48:19;;;;;;;27.37;24.67;;;;;;;-144.27;100.00;69759.91;2058027;28;21030;-72
2022/08/02 01:49:21;;;;;;;27.57;24.80;;;;;;;-144.27;100.00;69759.91;2065452;28;20448;-71
2022/08/02 01:50:27;;;;;;;36.77;25.73;;;;;;;-144.27;100.00;69759.91;2065750;28;20425;-73
2022/08/02 01:52:52;;;;;;;26.83;24.10;;;;;;;-144.27;100.00;69759.91;2065850;28;20411;-72
2022/08/02 01:53:53;;;;;;;27.50;24.60;;;;;;;-144.27;100.00;69759.91;2065395;28;20459;-72
2022/08/02 01:55:00;;;;;;;29.13;26.23;;;;;;;-144.27;100.00;69759.91;2065603;28;20747;-72
2022/08/02 01:56:02;;;;;;;28.13;25.20;;;;;;;-144.27;100.00;69759.91;2066152;28;20404;-72
2022/08/02 01:57:07;;;;;;;29.57;24.97;;;;;;;-144.27;100.00;69759.91;2057358;28;20501;-72
2022/08/02 01:58:08;;;;;;;28.83;25.97;;;;;;;-144.27;100.00;69759.91;2057910;28;20437;-72
2022/08/02 01:59:14;;;;;;;27.40;24.67;;;;;;;-144.27;100.00;69759.91;2066104;28;20919;-72
2022/08/02 02:00:18;;;;;;;27.70;24.90;;;;;;;-144.27;100.00;69759.91;2066236;28;20436;-72
2022/08/02 02:01:21;;;;;;;27.70;24.70;;;;;;;-144.27;100.00;69759.91;2066100;28;20481;-72
2022/08/02 02:02:22;;;;;;;27.20;24.60;;;;;;;-144.27;100.00;69759.91;2057310;28;20979;-72
2022/08/02 02:03:27;;;;;;;27.90;25.00;;;;;;;-144.27;100.00;69759.91;2057426;28;20429;-72
2022/08/02 02:04:30;;;;;;;29.47;24.50;;;;;;;-144.27;100.00;69759.91;2064720;28;20540;-72
2022/08/02 02:05:32;;;;;;;28.13;25.20;;;;;;;-144.27;100.00;69759.91;2065225;28;20436;-73
2022/08/02 02:06:33;;;;;;;27.87;25.00;;;;;;;-144.27;100.00;69759.91;2064870;28;20539;-71
2022/08/02 02:07:36;;;;;;;27.37;24.67;;;;;;;-144.27;100.00;69759.91;2065189;28;20443;-72
2022/08/02 02:08:39;;;;;;;28.60;25.53;;;;;;;-144.27;100.00;69759.91;2057586;28;20512;-72
2022/08/02 02:09:41;;;;;;;27.90;25.00;;;;;;;-144.27;100.00;69759.91;2065299;28;20455;-72
2022/08/02 02:10:46;;;;;;;27.10;24.40;;;;;;;-144.27;100.00;69759.91;2057208;28;20504;-72
2022/08/02 02:11:48;;;;;;;27.63;24.70;;;;;;;-144.27;100.00;69759.91;2049251;28;20446;-72
2022/08/02 02:12:51;;;;;;;29.00;25.47;;;;;;;-144.27;100.00;69759.91;2057502;28;20814;-72
2022/08/02 02:13:52;;;;;;;28.40;25.57;;;;;;;-144.27;100.00;69759.91;2065876;28;20519;-72
2022/08/02 02:14:55;;;;;;;27.47;24.63;;;;;;;-144.27;100.00;69759.91;2065846;28;20439;-72
2022/08/02 02:15:57;;;;;;;27.87;25.07;;;;;;;-144.27;100.00;69759.91;2065928;28;20946;-72
2022/08/02 02:17:02;;;;;;;28.80;25.70;;;;;;;-144.27;100.00;69759.91;2065245;28;20811;-73
2022/08/02 02:18:05;;;;;;;28.27;25.23;;;;;;;-144.27;100.00;69759.91;2065161;28;20941;-72
2022/08/02 02:19:10;;;;;;;29.17;26.03;;;;;;;-144.27;100.00;69759.91;2066154;28;20412;-72
2022/08/02 02:20:14;;;;;;;29.60;26.50;;;;;;;-144.27;100.00;69759.91;2065887;28;20473;-71
2022/08/02 02:21:19;;;;;;;29.00;26.10;;;;;;;-144.27;100.00;69759.91;2065657;28;20483;-72
2022/08/02 02:22:20;;;;;;;28.13;25.23;;;;;;;-144.27;100.00;69759.91;2066009;28;20459;-71
2022/08/02 02:23:22;;;;;;;29.83;26.43;;;;;;;-144.27;100.00;69759.91;2065879;28;20428;-72
2022/08/02 02:24:23;;;;;;;28.93;25.93;;;;;;;-144.27;100.00;69759.91;2065267;28;20343;-72
2022/08/02 02:25:29;;;;;;;29.57;25.90;;;;;;;-144.27;100.00;69759.91;2065278;28;20440;-72
2022/08/02 02:26:31;;;;;;;27.00;24.23;;;;;;;-144.27;100.00;69759.91;2056172;28;20213;-72
2022/08/02 02:27:34;;;;;;;29.30;25.53;;;;;;;-144.27;100.00;69759.91;2057484;28;20547;-72
2022/08/02 02:28:36;;;;;;;30.87;26.00;;;;;;;-144.27;100.00;69759.91;2066042;28;20524;-72
2022/08/02 02:29:39;;;;;;;27.60;24.67;;;;;;;-144.27;100.00;69759.91;2057217;28;20437;-71
2022/08/02 02:30:48;;;;;;;29.10;24.97;;;;;;;-144.27;100.00;69759.91;2049496;28;21076;-72
2022/08/02 02:31:54;;;;;;;31.03;24.67;;;;;;;-144.27;100.00;69759.91;2057205;28;20920;-72
2022/08/02 02:32:57;;;;;;;32.70;24.73;;;;;;;-144.27;100.00;69759.91;2049866;28;21039;-71
2022/08/02 02:34:02;;;;;;;27.13;24.33;;;;;;;-144.27;100.00;69759.91;2057573;28;20422;-71
2022/08/02 02:35:04;;;;;;;28.33;25.10;;;;;;;-144.27;100.00;69759.91;2066103;28;20417;-72
2022/08/02 02:36:08;;;;;;;27.63;24.83;;;;;;;-144.27;100.00;69759.91;2065272;28;20491;-72
2022/08/02 02:37:13;;;;;;;27.43;24.53;;;;;;;-144.27;100.00;69759.91;2065858;28;20408;-72
2022/08/02 02:38:17;;;;;;;27.83;24.93;;;;;;;-144.27;100.00;69759.91;2065178;28;20468;-71
2022/08/02 02:39:23;;;;;;;27.67;24.97;;;;;;;-144.27;100.00;69759.91;2057198;28;21010;-72
2022/08/02 02:40:27;;;;;;;31.03;24.87;;;;;;;-144.27;100.00;69759.91;2049679;28;20442;-72
2022/08/02 02:41:28;;;;;;;29.07;23.90;;;;;;;-144.27;100.00;69759.91;2049389;28;20453;-72
2022/08/02 02:42:31;;;;;;;27.87;24.87;;;;;;;-144.27;100.00;69759.91;2057108;28;20453;-72
2022/08/02 02:43:33;;;;;;;27.03;24.23;;;;;;;-144.27;100.00;69759.91;2065303;28;20197;-72
2022/08/02 02:44:35;;;;;;;28.90;24.50;;;;;;;-144.27;100.00;69759.91;2057230;28;20487;-72
2022/08/02 02:45:37;;;;;;;27.03;24.33;;;;;;;-144.27;100.00;69759.91;2057480;28;20816;-72
2022/08/02 02:46:41;;;;;;;27.20;24.27;;;;;;;-144.27;100.00;69759.91;2057134;28;20441;-73
2022/08/02 02:47:50;;;;;;;28.00;23.97;;;;;;;-144.27;100.00;69759.91;2057673;28;20522;-72
2022/08/02 02:48:51;;;;;;;27.63;24.73;;;;;;;-144.27;100.00;69759.91;2065137;28;20531;-72
2022/08/02 02:49:53;;;;;;;26.57;23.77;;;;;;;-144.27;100.00;69759.91;2065177;28;20491;-72
2022/08/02 02:50:53;;;;;;;26.37;23.00;;;;;;;-144.27;100.00;69759.91;2065305;28;20432;-72
2022/08/02 02:51:55;;;;;;;25.80;22.77;;;;;;;-144.27;100.00;69759.91;2057043;28;20480;-72
2022/08/02 02:52:57;;;;;;;25.07;22.60;;;;;;;-144.27;100.00;69759.91;2057408;28;20201;-72
2022/08/02 02:53:59;;;;;;;25.17;22.47;;;;;;;-144.27;100.00;69759.91;2057097;28;20445;-72
2022/08/02 02:55:00;;;;;;;25.63;23.13;;;;;;;-144.27;100.00;69759.91;2057283;28;20936;-72
2022/08/02 02:56:02;;;;;;;26.93;24.07;;;;;;;-144.27;100.00;69759.91;2065723;28;20440;-71
2022/08/02 02:57:04;;;;;;;26.93;23.47;;;;;;;-144.27;100.00;69759.91;2057083;28;20908;-72
2022/08/02 02:58:09;;;;;;;26.47;23.60;;;;;;;-144.27;100.00;69759.91;2057540;28;20437;-71
2022/08/02 02:59:13;;;;;;;25.77;23.07;;;;;;;-144.27;100.00;69759.91;2065790;28;20443;-72
2022/08/02 03:00:15;;;;;;;28.20;23.80;;;;;;;-144.27;100.00;69759.91;2065057;28;20440;-72
2022/08/02 03:02:38;;;;;;;27.67;22.90;;;;;;;-144.27;100.00;69759.91;2065044;28;20819;-72
2022/08/02 03:03:39;;;;;;;31.30;23.77;;;;;;;-144.27;100.00;69759.91;2064738;28;20479;-72
2022/08/02 03:04:42;;;;;;;28.33;23.27;;;;;;;-144.27;100.00;69759.91;2057239;28;20421;-72
2022/08/02 03:05:44;;;;;;;26.63;23.43;;;;;;;-144.27;100.00;69759.91;2065703;28;20481;-72
2022/08/02 03:06:47;;;;;;;27.27;23.40;;;;;;;-144.27;100.00;69759.91;2056985;28;20461;-72
2022/08/02 03:07:48;;;;;;;25.73;22.93;;;;;;;-144.27;100.00;69759.91;2057298;28;20468;-72
2022/08/02 03:08:49;;;;;;;29.50;23.63;;;;;;;-144.27;100.00;69759.91;2056981;28;20456;-72
2022/08/02 03:09:50;;;;;;;28.17;23.00;;;;;;;-144.27;100.00;69759.91;2049069;29;20198;-72
2022/08/02 03:10:52;;;;;;;25.50;22.80;;;;;;;-144.27;100.00;69759.91;2057156;28;20943;-72
2022/08/02 03:11:56;;;;;;;25.50;22.90;;;;;;;-144.27;100.00;69759.91;2065734;28;20723;-71
2022/08/02 03:12:59;;;;;;;26.33;23.47;;;;;;;-144.27;100.00;69759.91;2065092;28;20527;-72
2022/08/02 03:14:03;;;;;;;25.77;23.03;;;;;;;-144.27;100.00;69759.91;2064856;28;20792;-71
2022/08/02 03:15:08;;;;;;;26.63;23.60;;;;;;;-144.27;100.00;69759.91;2049243;28;20873;-72
2022/08/02 03:16:10;;;;;;;28.47;24.10;;;;;;;-144.27;100.00;69759.91;2050071;28;20461;-71
2022/08/02 03:17:11;;;;;;;26.40;23.60;;;;;;;-144.27;100.00;69759.91;2050671;28;20540;-72
2022/08/02 03:18:31;;;;;;;26.23;23.43;;;;;;;-144.27;100.00;69759.91;2050400;29;20863;-72
2022/08/02 03:19:33;;;;;;;26.00;23.37;;;;;;;-144.27;100.00;69759.91;2052914;28;20445;-72
2022/08/02 03:20:36;;;;;;;29.17;23.13;;;;;;;-144.27;100.00;69759.91;2058876;28;20441;-72
2022/08/02 03:21:37;;;;;;;26.60;23.70;;;;;;;-144.27;100.00;69759.91;2066907;28;20518;-72
2022/08/02 03:22:38;;;;;;;29.73;24.43;;;;;;;-144.27;100.00;69759.91;2067239;28;20946;-71
2022/08/02 03:23:41;;;;;;;27.07;23.63;;;;;;;-144.27;100.00;69759.91;2066488;28;20824;-72
2022/08/02 03:24:42;;;;;;;26.23;23.47;;;;;;;-144.27;100.00;69759.91;2066360;28;20287;-71
2022/08/02 03:25:44;;;;;;;25.80;23.13;;;;;;;-144.27;100.00;69759.91;2050491;29;20438;-72
2022/08/02 03:26:44;;;;;;;30.80;24.40;;;;;;;-144.27;100.00;69759.91;2058783;28;20185;-72
2022/08/02 03:27:46;;;;;;;27.50;24.07;;;;;;;-144.27;100.00;69759.91;2067081;28;20463;-72
2022/08/02 03:28:47;;;;;;;29.33;24.30;;;;;;;-144.27;100.00;69759.91;2067169;28;20217;-72
2022/08/02 03:29:49;;;;;;;29.63;24.37;;;;;;;-144.27;100.00;69759.91;2067319;28;20436;-72
2022/08/02 03:30:49;;;;;;;29.10;24.17;;;;;;;-144.27;100.00;69759.91;2066495;28;20283;-72
2022/08/02 03:31:52;;;;;;;27.67;24.00;;;;;;;-144.27;100.00;69759.91;2058365;28;20445;-72
2022/08/02 03:32:53;;;;;;;27.03;24.13;;;;;;;-144.27;100.00;69759.91;2058863;28;20189;-72
2022/08/02 03:33:59;;;;;;;30.40;24.70;;;;;;;-144.27;100.00;69759.91;2067096;28;20474;-72
2022/08/02 03:35:00;;;;;;;30.43;24.63;;;;;;;-144.27;100.00;69759.91;2067340;28;20891;-72
2022/08/02 03:36:04;;;;;;;34.90;26.20;;;;;;;-144.27;100.00;69759.91;2066717;28;20424;-72
2022/08/02 03:37:06;;;;;;;36.87;28.17;;;;;;;-144.27;100.00;69759.91;2067302;28;20448;-72
2022/08/02 03:38:07;;;;;;;33.60;27.73;;;;;;;-144.27;100.00;69759.91;2067010;28;20966;-72
2022/08/02 03:39:14;;;;;;;36.37;27.77;;;;;;;-144.27;100.00;69759.91;2067223;28;20495;-72
2022/08/02 03:40:16;;;;;;;34.97;27.00;;;;;;;-144.27;100.00;69759.91;2066445;28;20455;-72
2022/08/02 03:41:18;;;;;;;38.87;27.13;;;;;;;-144.27;100.00;69759.91;2066451;28;20428;-71
2022/08/02 03:42:19;;;;;;;35.93;27.07;;;;;;;-144.27;100.00;69759.91;2066365;28;20590;-72
2022/08/02 03:43:20;;;;;;;39.40;27.40;;;;;;;-144.27;100.00;69759.91;2066576;28;20436;-73
2022/08/02 03:44:22;;;;;;;38.23;26.80;;;;;;;-144.27;100.00;69759.91;2066387;28;20228;-72
2022/08/02 03:45:24;;;;;;;44.37;29.03;;;;;;;-144.27;100.00;69759.91;2066341;28;20523;-72
2022/08/02 03:46:26;;;;;;;36.47;27.77;;;;;;;-144.27;100.00;69759.91;2058508;28;20456;-72
2022/08/02 03:47:29;;;;;;;37.77;29.27;;;;;;;-144.27;100.00;69759.91;2066928;28;20870;-72
2022/08/02 03:48:30;;;;;;;39.70;28.30;;;;;;;-144.27;100.00;69759.91;2067026;28;20926;-72
2022/08/02 03:49:33;;;;;;;42.73;31.20;;;;;;;-144.27;100.00;69759.91;2058291;28;20437;-73
2022/08/02 03:50:35;;;;;;;44.57;31.53;;;;;;;-144.27;100.00;69759.91;2050373;28;20486;-71
2022/08/02 03:51:37;;;;;;;39.87;31.50;;;;;;;-144.27;100.00;69759.91;2058277;28;20448;-72
2022/08/02 03:52:40;;;;;;;44.90;32.03;;;;;;;-144.27;100.00;69759.91;2067026;28;20475;-72
2022/08/02 03:53:43;;;;;;;49.60;30.70;;;;;;;-144.27;100.00;69759.91;2066960;28;20424;-72
2022/08/02 03:54:43;;;;;;;45.37;33.13;;;;;;;-144.27;100.00;69759.91;2066314;28;20519;-72
2022/08/02 03:55:45;;;;;;;45.83;32.57;;;;;;;-144.27;100.00;69759.91;2066242;28;20986;-72
2022/08/02 03:56:46;;;;;;;43.97;31.30;;;;;;;-144.27;100.00;69759.91;2050411;28;20207;-72
2022/08/02 03:57:48;;;;;;;47.43;33.63;;;;;;;-144.27;100.00;69759.91;2058359;28;20452;-72
2022/08/02 03:58:49;;;;;;;46.93;33.67;;;;;;;-144.27;100.00;69759.91;2066903;28;20500;-72
2022/08/02 03:59:51;;;;;;;52.20;34.30;;;;;;;-144.27;100.00;69759.91;2066939;28;20508;-73
2022/08/02 04:00:53;;;;;;;54.03;32.37;;;;;;;-144.27;100.00;69759.91;2067126;28;20196;-72
2022/08/02 04:01:55;;;;;;;45.40;32.67;;;;;;;-144.27;100.00;69759.91;2066997;28;20424;-72
2022/08/02 04:02:56;;;;;;;53.70;34.07;;;;;;;-144.27;100.00;69759.91;2067130;28;20431;-72
2022/08/02 04:03:57;;;;;;;50.70;32.93;;;;;;;-144.27;100.00;69759.91;2066858;28;20432;-72
2022/08/02 04:04:59;;;;;;;49.47;34.20;;;;;;;-144.27;100.00;69759.91;2066855;28;20559;-72
2022/08/02 04:06:01;;;;;;;60.07;34.57;;;;;;;-144.27;100.00;69759.91;2057603;28;20440;-72
2022/08/02 04:07:02;;;;;;;53.60;32.80;;;;;;;-144.27;100.00;69759.91;2058411;28;20480;-72
2022/08/02 04:08:06;;;;;;;58.03;33.60;;;;;;;-144.27;100.00;69759.91;2066095;28;20478;-72
2022/08/02 04:09:07;;;;;;;56.27;35.17;;;;;;;-144.27;100.00;69759.91;2066293;28;20428;-72
2022/08/02 04:10:09;;;;;;;60.10;34.93;;;;;;;-144.27;100.00;69759.91;2066934;28;20440;-72
2022/08/02 04:12:29;;;;;;;60.00;34.50;;;;;;;-144.27;100.00;69759.91;2052508;28;20430;-72
2022/08/02 04:13:33;;;;;;;62.23;34.93;;;;;;;-144.27;100.00;69759.91;2058203;28;20437;-72
2022/08/02 04:14:35;;;;;;;59.03;34.97;;;;;;;-144.27;100.00;69759.91;2058018;28;20225;-71
2022/08/02 04:15:38;;;;;;;61.83;35.87;;;;;;;-144.27;100.00;69759.91;2049862;28;20458;-71
2022/08/02 04:16:42;;;;;;;59.10;34.00;;;;;;;-144.27;100.00;69759.91;2049951;28;20967;-72
2022/08/02 04:17:46;;;;;;;62.37;35.40;;;;;;;-144.27;100.00;69759.91;2050438;28;20465;-72
2022/08/02 04:18:52;;;;;;;62.97;35.63;;;;;;;-144.27;100.00;69759.91;2050333;28;21004;-72
2022/08/02 04:19:55;;;;;;;63.47;35.57;;;;;;;-144.27;100.00;69759.91;2050611;28;20461;-71
2022/08/02 04:21:01;;;;;;;63.00;34.73;;;;;;;-144.27;100.00;69759.91;2057947;28;20878;-72
2022/08/02 04:22:04;;;;;;;67.20;35.60;;;;;;;-144.27;100.00;69759.91;2066996;28;20802;-71
2022/08/02 04:23:06;;;;;;;64.40;35.70;;;;;;;-144.27;100.00;69759.91;2058064;28;20511;-72
2022/08/02 04:24:09;;;;;;;66.63;36.17;;;;;;;-144.27;100.00;69759.91;2058293;28;20981;-72
2022/08/02 04:25:10;;;;;;;71.20;35.53;;;;;;;-144.27;100.00;69759.91;2066011;28;20507;-72
2022/08/02 04:26:12;;;;;;;65.67;35.17;;;;;;;-144.27;100.00;69759.91;2066110;28;20436;-72
2022/08/02 04:27:15;;;;;;;66.83;36.63;;;;;;;-144.27;100.00;69759.91;2065746;28;20220;-71
2022/08/02 04:28:18;;;;;;;69.23;37.27;;;;;;;-144.27;100.00;69759.91;2065668;28;20522;-71
2022/08/02 04:29:19;;;;;;;67.60;37.37;;;;;;;-144.27;100.00;69759.91;2066060;28;20452;-71
2022/08/02 04:30:21;;;;;;;73.03;36.20;;;;;;;-144.27;100.00;69759.91;2066316;28;20424;-71
2022/08/02 04:31:22;;;;;;;60.70;36.73;;;;;;;-144.27;100.00;69759.91;2066026;28;20213;-71
2022/08/02 04:32:23;;;;;;;70.73;38.03;;;;;;;-144.27;100.00;69759.91;2066097;28;20435;-72
2022/08/02 04:33:25;;;;;;;63.50;36.23;;;;;;;-144.27;100.00;69759.91;2066652;28;20224;-71
2022/08/02 04:34:28;;;;;;;67.33;36.17;;;;;;;-144.27;100.00;69759.91;2066626;28;20943;-72
2022/08/02 04:35:29;;;;;;;69.87;36.47;;;;;;;-144.27;100.00;69759.91;2066665;28;20435;-72
2022/08/02 04:36:32;;;;;;;70.00;37.03;;;;;;;-144.27;100.00;69759.91;2066226;28;20448;-71
2022/08/02 04:37:33;;;;;;;75.70;36.57;;;;;;;-144.27;100.00;69759.91;2066616;28;20279;-71
2022/08/02 04:38:35;;;;;;;71.13;36.67;;;;;;;-144.27;100.00;69759.91;2066797;28;20435;-71
2022/08/02 04:39:36;;;;;;;73.87;38.20;;;;;;;-144.27;100.00;69759.91;2065962;28;20224;-72
2022/08/02 04:40:38;;;;;;;73.97;38.13;;;;;;;-144.27;100.00;69759.91;2066378;28;20440;-71
2022/08/02 04:41:41;;;;;;;71.57;37.93;;;;;;;-144.27;100.00;69759.91;2058191;28;20610;-71
2022/08/02 04:42:43;;;;;;;63.13;37.57;;;;;;;-144.27;100.00;69759.91;2065901;28;20448;-71
2022/08/02 04:43:43;;;;;;;74.67;36.90;;;;;;;-144.27;100.00;69759.91;2057526;28;20452;-72
2022/08/02 04:44:45;;;;;;;64.47;35.93;;;;;;;-144.27;100.00;69759.91;2049848;29;20529;-71